sensor_id;sensor_type;location;lat;lon;timestamp;P1;durP1;ratioP1;P2;durP2;ratioP2
11414;SDS011;5763;42.714;23.244;2023-07-13T00:02:23;4.57;;;3.90;;
11414;SDS011;5763;42.714;23.244;2023-07-13T00:04:51;6.00;;;4.35;;
11414;SDS011;5763;42.714;23.244;2023-07-13T00:07:18;5.15;;;3.50;;
11414;SDS011;5763;42.714;23.244;2023-07-13T00:09:47;4.75;;;4.22;;
11414;SDS011;5763;42.714;23.244;2023-07-13T00:12:24;5.25;;;3.90;;
11414;SDS011;5763;42.714;23.244;2023-07-13T00:14:54;6.03;;;3.70;;
11414;SDS011;5763;42.714;23.244;2023-07-13T00:17:22;4.45;;;3.75;;
11414;SDS011;5763;42.714;23.244;2023-07-13T00:19:49;5.97;;;3.90;;
11414;SDS011;5763;42.714;23.244;2023-07-13T00:22:16;4.10;;;3.67;;
11414;SDS011;5763;42.714;23.244;2023-07-13T00:24:43;4.97;;;3.83;;
11414;SDS011;5763;42.714;23.244;2023-07-13T00:27:12;4.38;;;3.65;;
11414;SDS011;5763;42.714;23.244;2023-07-13T00:29:39;6.95;;;3.90;;
11414;SDS011;5763;42.714;23.244;2023-07-13T00:32:06;5.47;;;4.38;;
11414;SDS011;5763;42.714;23.244;2023-07-13T00:34:34;5.90;;;4.00;;
11414;SDS011;5763;42.714;23.244;2023-07-13T00:37:01;5.78;;;4.13;;
11414;SDS011;5763;42.714;23.244;2023-07-13T00:39:28;5.10;;;4.15;;
11414;SDS011;5763;42.714;23.244;2023-07-13T00:41:55;6.85;;;4.70;;
11414;SDS011;5763;42.714;23.244;2023-07-13T00:44:23;9.77;;;3.92;;
11414;SDS011;5763;42.714;23.244;2023-07-13T00:46:50;5.53;;;4.13;;
11414;SDS011;5763;42.714;23.244;2023-07-13T00:49:18;6.05;;;4.55;;
11414;SDS011;5763;42.714;23.244;2023-07-13T00:51:47;5.82;;;3.97;;
11414;SDS011;5763;42.714;23.244;2023-07-13T00:54:19;6.93;;;4.80;;
11414;SDS011;5763;42.714;23.244;2023-07-13T00:56:48;5.28;;;4.53;;
11414;SDS011;5763;42.714;23.244;2023-07-13T00:59:18;6.35;;;4.65;;
11414;SDS011;5763;42.714;23.244;2023-07-13T01:01:49;7.07;;;4.55;;
11414;SDS011;5763;42.714;23.244;2023-07-13T01:04:17;6.50;;;4.13;;
11414;SDS011;5763;42.714;23.244;2023-07-13T01:06:44;6.00;;;4.25;;
11414;SDS011;5763;42.714;23.244;2023-07-13T01:09:12;6.50;;;4.70;;
11414;SDS011;5763;42.714;23.244;2023-07-13T01:11:41;6.53;;;4.60;;
11414;SDS011;5763;42.714;23.244;2023-07-13T01:14:07;5.43;;;4.20;;
11414;SDS011;5763;42.714;23.244;2023-07-13T01:16:35;4.35;;;3.95;;
11414;SDS011;5763;42.714;23.244;2023-07-13T01:19:06;7.10;;;4.63;;
11414;SDS011;5763;42.714;23.244;2023-07-13T01:21:43;5.07;;;4.30;;
11414;SDS011;5763;42.714;23.244;2023-07-13T01:24:10;6.18;;;4.75;;
11414;SDS011;5763;42.714;23.244;2023-07-13T01:26:37;8.55;;;4.85;;
11414;SDS011;5763;42.714;23.244;2023-07-13T01:29:03;5.40;;;4.50;;
11414;SDS011;5763;42.714;23.244;2023-07-13T01:31:30;7.40;;;5.40;;
11414;SDS011;5763;42.714;23.244;2023-07-13T01:33:57;5.47;;;4.45;;
11414;SDS011;5763;42.714;23.244;2023-07-13T01:36:23;6.65;;;4.43;;
11414;SDS011;5763;42.714;23.244;2023-07-13T01:38:52;5.72;;;4.57;;
11414;SDS011;5763;42.714;23.244;2023-07-13T01:41:19;5.53;;;4.50;;
11414;SDS011;5763;42.714;23.244;2023-07-13T01:43:46;6.18;;;4.60;;
11414;SDS011;5763;42.714;23.244;2023-07-13T01:46:12;5.45;;;4.70;;
11414;SDS011;5763;42.714;23.244;2023-07-13T01:48:39;5.78;;;5.05;;
11414;SDS011;5763;42.714;23.244;2023-07-13T01:51:06;6.55;;;4.80;;
11414;SDS011;5763;42.714;23.244;2023-07-13T01:53:32;7.20;;;4.65;;
11414;SDS011;5763;42.714;23.244;2023-07-13T01:56:01;5.80;;;4.95;;
11414;SDS011;5763;42.714;23.244;2023-07-13T01:58:27;5.30;;;4.22;;
11414;SDS011;5763;42.714;23.244;2023-07-13T02:00:54;5.03;;;4.60;;
11414;SDS011;5763;42.714;23.244;2023-07-13T02:03:21;6.50;;;4.55;;
11414;SDS011;5763;42.714;23.244;2023-07-13T02:05:48;8.98;;;5.10;;
11414;SDS011;5763;42.714;23.244;2023-07-13T02:08:14;5.10;;;4.60;;
11414;SDS011;5763;42.714;23.244;2023-07-13T02:10:41;5.95;;;4.85;;
11414;SDS011;5763;42.714;23.244;2023-07-13T02:13:09;6.30;;;4.85;;
11414;SDS011;5763;42.714;23.244;2023-07-13T02:15:38;6.75;;;4.57;;
11414;SDS011;5763;42.714;23.244;2023-07-13T02:18:05;5.75;;;4.60;;
11414;SDS011;5763;42.714;23.244;2023-07-13T02:20:32;5.97;;;5.03;;
11414;SDS011;5763;42.714;23.244;2023-07-13T02:22:59;5.82;;;5.00;;
11414;SDS011;5763;42.714;23.244;2023-07-13T02:25:25;6.97;;;5.22;;
11414;SDS011;5763;42.714;23.244;2023-07-13T02:27:52;6.18;;;5.20;;
11414;SDS011;5763;42.714;23.244;2023-07-13T02:30:20;5.72;;;5.22;;
11414;SDS011;5763;42.714;23.244;2023-07-13T02:32:49;6.93;;;5.72;;
11414;SDS011;5763;42.714;23.244;2023-07-13T02:35:16;10.65;;;6.45;;
11414;SDS011;5763;42.714;23.244;2023-07-13T02:37:43;6.90;;;5.45;;
11414;SDS011;5763;42.714;23.244;2023-07-13T02:40:10;6.18;;;5.25;;
11414;SDS011;5763;42.714;23.244;2023-07-13T02:42:37;6.35;;;5.07;;
11414;SDS011;5763;42.714;23.244;2023-07-13T02:45:04;6.30;;;4.93;;
11414;SDS011;5763;42.714;23.244;2023-07-13T02:47:33;8.10;;;4.97;;
11414;SDS011;5763;42.714;23.244;2023-07-13T02:50:00;6.13;;;5.55;;
11414;SDS011;5763;42.714;23.244;2023-07-13T02:52:27;6.90;;;5.43;;
11414;SDS011;5763;42.714;23.244;2023-07-13T02:54:53;7.03;;;5.45;;
11414;SDS011;5763;42.714;23.244;2023-07-13T02:57:20;6.90;;;4.88;;
11414;SDS011;5763;42.714;23.244;2023-07-13T02:59:47;6.45;;;4.95;;
11414;SDS011;5763;42.714;23.244;2023-07-13T03:02:14;7.95;;;5.43;;
11414;SDS011;5763;42.714;23.244;2023-07-13T03:04:43;9.55;;;5.55;;
11414;SDS011;5763;42.714;23.244;2023-07-13T03:07:10;9.48;;;5.00;;
11414;SDS011;5763;42.714;23.244;2023-07-13T03:09:38;5.90;;;5.03;;
11414;SDS011;5763;42.714;23.244;2023-07-13T03:12:05;6.68;;;4.88;;
11414;SDS011;5763;42.714;23.244;2023-07-13T03:14:32;6.85;;;5.10;;
11414;SDS011;5763;42.714;23.244;2023-07-13T03:16:59;5.03;;;4.63;;
11414;SDS011;5763;42.714;23.244;2023-07-13T03:19:26;6.40;;;5.57;;
11414;SDS011;5763;42.714;23.244;2023-07-13T03:21:54;6.18;;;5.30;;
11414;SDS011;5763;42.714;23.244;2023-07-13T03:24:21;9.07;;;5.93;;
11414;SDS011;5763;42.714;23.244;2023-07-13T03:26:51;8.95;;;6.00;;
11414;SDS011;5763;42.714;23.244;2023-07-13T03:29:17;7.13;;;5.60;;
11414;SDS011;5763;42.714;23.244;2023-07-13T03:31:44;6.38;;;5.72;;
11414;SDS011;5763;42.714;23.244;2023-07-13T03:34:11;6.60;;;5.90;;
11414;SDS011;5763;42.714;23.244;2023-07-13T03:36:38;6.97;;;5.45;;
11414;SDS011;5763;42.714;23.244;2023-07-13T03:39:06;8.00;;;5.60;;
11414;SDS011;5763;42.714;23.244;2023-07-13T03:41:34;11.63;;;6.75;;
11414;SDS011;5763;42.714;23.244;2023-07-13T03:44:00;8.18;;;5.68;;
11414;SDS011;5763;42.714;23.244;2023-07-13T03:46:27;9.05;;;7.47;;
11414;SDS011;5763;42.714;23.244;2023-07-13T03:48:54;7.20;;;6.50;;
11414;SDS011;5763;42.714;23.244;2023-07-13T03:51:21;8.90;;;6.03;;
11414;SDS011;5763;42.714;23.244;2023-07-13T03:53:48;7.03;;;6.15;;
11414;SDS011;5763;42.714;23.244;2023-07-13T03:56:16;7.78;;;6.63;;
11414;SDS011;5763;42.714;23.244;2023-07-13T03:58:45;9.15;;;6.78;;
11414;SDS011;5763;42.714;23.244;2023-07-13T04:01:13;8.32;;;6.50;;
11414;SDS011;5763;42.714;23.244;2023-07-13T04:03:41;6.90;;;6.10;;
11414;SDS011;5763;42.714;23.244;2023-07-13T04:06:12;10.07;;;6.70;;
11414;SDS011;5763;42.714;23.244;2023-07-13T04:08:46;7.10;;;6.40;;
11414;SDS011;5763;42.714;23.244;2023-07-13T04:11:15;7.43;;;6.07;;
11414;SDS011;5763;42.714;23.244;2023-07-13T04:13:42;7.50;;;6.38;;
11414;SDS011;5763;42.714;23.244;2023-07-13T04:16:09;7.15;;;6.35;;
11414;SDS011;5763;42.714;23.244;2023-07-13T04:18:36;9.05;;;6.57;;
11414;SDS011;5763;42.714;23.244;2023-07-13T04:21:02;9.10;;;7.30;;
11414;SDS011;5763;42.714;23.244;2023-07-13T04:23:29;7.25;;;6.55;;
11414;SDS011;5763;42.714;23.244;2023-07-13T04:25:56;9.18;;;6.85;;
11414;SDS011;5763;42.714;23.244;2023-07-13T04:28:25;9.07;;;6.38;;
11414;SDS011;5763;42.714;23.244;2023-07-13T04:30:52;11.10;;;6.72;;
11414;SDS011;5763;42.714;23.244;2023-07-13T04:33:19;8.05;;;6.80;;
11414;SDS011;5763;42.714;23.244;2023-07-13T04:35:47;7.10;;;6.40;;
11414;SDS011;5763;42.714;23.244;2023-07-13T04:38:14;9.50;;;6.80;;
11414;SDS011;5763;42.714;23.244;2023-07-13T04:40:42;9.07;;;6.93;;
11414;SDS011;5763;42.714;23.244;2023-07-13T04:43:08;13.48;;;6.65;;
11414;SDS011;5763;42.714;23.244;2023-07-13T04:45:37;9.23;;;6.70;;
11414;SDS011;5763;42.714;23.244;2023-07-13T04:48:04;10.05;;;6.95;;
11414;SDS011;5763;42.714;23.244;2023-07-13T04:50:32;11.90;;;8.02;;
11414;SDS011;5763;42.714;23.244;2023-07-13T04:52:58;14.15;;;8.18;;
11414;SDS011;5763;42.714;23.244;2023-07-13T04:55:25;9.48;;;8.15;;
11414;SDS011;5763;42.714;23.244;2023-07-13T04:57:55;9.57;;;8.07;;
11414;SDS011;5763;42.714;23.244;2023-07-13T05:00:23;8.70;;;7.65;;
11414;SDS011;5763;42.714;23.244;2023-07-13T05:02:53;10.30;;;8.13;;
11414;SDS011;5763;42.714;23.244;2023-07-13T05:05:20;8.50;;;7.60;;
11414;SDS011;5763;42.714;23.244;2023-07-13T05:07:47;10.10;;;7.40;;
11414;SDS011;5763;42.714;23.244;2023-07-13T05:10:14;14.23;;;7.90;;
11414;SDS011;5763;42.714;23.244;2023-07-13T05:12:41;10.88;;;7.88;;
11414;SDS011;5763;42.714;23.244;2023-07-13T05:15:09;10.95;;;7.75;;
11414;SDS011;5763;42.714;23.244;2023-07-13T05:17:37;12.68;;;7.15;;
11414;SDS011;5763;42.714;23.244;2023-07-13T05:20:06;12.10;;;7.55;;
11414;SDS011;5763;42.714;23.244;2023-07-13T05:22:33;9.43;;;7.32;;
11414;SDS011;5763;42.714;23.244;2023-07-13T05:25:01;9.65;;;7.88;;
11414;SDS011;5763;42.714;23.244;2023-07-13T05:27:28;8.85;;;7.80;;
11414;SDS011;5763;42.714;23.244;2023-07-13T05:29:54;10.60;;;8.23;;
11414;SDS011;5763;42.714;23.244;2023-07-13T05:32:21;10.25;;;7.78;;
11414;SDS011;5763;42.714;23.244;2023-07-13T05:34:48;8.55;;;7.75;;
11414;SDS011;5763;42.714;23.244;2023-07-13T05:37:17;14.02;;;8.75;;
11414;SDS011;5763;42.714;23.244;2023-07-13T05:39:43;10.93;;;8.02;;
11414;SDS011;5763;42.714;23.244;2023-07-13T05:42:10;13.35;;;8.50;;
11414;SDS011;5763;42.714;23.244;2023-07-13T05:44:37;9.35;;;8.45;;
11414;SDS011;5763;42.714;23.244;2023-07-13T05:47:04;13.48;;;8.98;;
11414;SDS011;5763;42.714;23.244;2023-07-13T05:49:31;11.23;;;8.40;;
11414;SDS011;5763;42.714;23.244;2023-07-13T05:51:58;9.95;;;8.77;;
11414;SDS011;5763;42.714;23.244;2023-07-13T05:54:26;11.48;;;9.60;;
11414;SDS011;5763;42.714;23.244;2023-07-13T05:56:53;11.98;;;9.00;;
11414;SDS011;5763;42.714;23.244;2023-07-13T05:59:20;11.00;;;9.10;;
11414;SDS011;5763;42.714;23.244;2023-07-13T06:01:47;13.88;;;9.70;;
11414;SDS011;5763;42.714;23.244;2023-07-13T06:04:14;10.95;;;9.02;;
11414;SDS011;5763;42.714;23.244;2023-07-13T06:06:40;12.05;;;9.18;;
11414;SDS011;5763;42.714;23.244;2023-07-13T06:09:07;13.93;;;8.98;;
11414;SDS011;5763;42.714;23.244;2023-07-13T06:11:35;17.67;;;13.18;;
11414;SDS011;5763;42.714;23.244;2023-07-13T06:14:02;15.30;;;10.00;;
11414;SDS011;5763;42.714;23.244;2023-07-13T06:16:29;11.15;;;9.05;;
11414;SDS011;5763;42.714;23.244;2023-07-13T06:18:56;14.30;;;8.77;;
11414;SDS011;5763;42.714;23.244;2023-07-13T06:21:23;13.07;;;9.00;;
11414;SDS011;5763;42.714;23.244;2023-07-13T06:23:50;15.13;;;9.35;;
11414;SDS011;5763;42.714;23.244;2023-07-13T06:26:18;11.40;;;9.05;;
11414;SDS011;5763;42.714;23.244;2023-07-13T06:28:47;12.95;;;8.90;;
11414;SDS011;5763;42.714;23.244;2023-07-13T06:31:14;14.05;;;8.55;;
11414;SDS011;5763;42.714;23.244;2023-07-13T06:33:41;10.45;;;8.25;;
11414;SDS011;5763;42.714;23.244;2023-07-13T06:36:09;12.00;;;8.70;;
11414;SDS011;5763;42.714;23.244;2023-07-13T06:38:36;11.80;;;7.75;;
11414;SDS011;5763;42.714;23.244;2023-07-13T06:41:03;8.90;;;7.70;;
11414;SDS011;5763;42.714;23.244;2023-07-13T06:43:30;15.70;;;9.48;;
11414;SDS011;5763;42.714;23.244;2023-07-13T06:45:59;14.27;;;8.95;;
11414;SDS011;5763;42.714;23.244;2023-07-13T06:48:26;9.48;;;8.15;;
11414;SDS011;5763;42.714;23.244;2023-07-13T06:50:53;10.32;;;7.60;;
11414;SDS011;5763;42.714;23.244;2023-07-13T06:53:21;10.55;;;9.50;;
11414;SDS011;5763;42.714;23.244;2023-07-13T06:55:47;11.10;;;7.82;;
11414;SDS011;5763;42.714;23.244;2023-07-13T06:58:15;10.63;;;8.63;;
11414;SDS011;5763;42.714;23.244;2023-07-13T07:00:43;9.30;;;8.20;;
11414;SDS011;5763;42.714;23.244;2023-07-13T07:03:11;10.10;;;7.22;;
11414;SDS011;5763;42.714;23.244;2023-07-13T07:05:38;9.57;;;8.68;;
11414;SDS011;5763;42.714;23.244;2023-07-13T07:08:05;10.75;;;8.82;;
11414;SDS011;5763;42.714;23.244;2023-07-13T07:10:32;11.95;;;9.02;;
11414;SDS011;5763;42.714;23.244;2023-07-13T07:12:59;14.18;;;8.95;;
11414;SDS011;5763;42.714;23.244;2023-07-13T07:15:26;13.55;;;9.65;;
11414;SDS011;5763;42.714;23.244;2023-07-13T07:17:54;10.45;;;8.35;;
11414;SDS011;5763;42.714;23.244;2023-07-13T07:20:22;11.60;;;9.07;;
11414;SDS011;5763;42.714;23.244;2023-07-13T07:22:49;8.93;;;8.02;;
11414;SDS011;5763;42.714;23.244;2023-07-13T07:25:16;13.68;;;8.52;;
11414;SDS011;5763;42.714;23.244;2023-07-13T07:27:43;10.57;;;8.50;;
11414;SDS011;5763;42.714;23.244;2023-07-13T07:30:10;10.00;;;8.57;;
11414;SDS011;5763;42.714;23.244;2023-07-13T07:32:37;13.27;;;7.90;;
11414;SDS011;5763;42.714;23.244;2023-07-13T07:35:04;11.35;;;7.88;;
11414;SDS011;5763;42.714;23.244;2023-07-13T07:37:33;13.23;;;8.48;;
11414;SDS011;5763;42.714;23.244;2023-07-13T07:40:00;9.55;;;8.55;;
11414;SDS011;5763;42.714;23.244;2023-07-13T07:42:27;8.93;;;8.02;;
11414;SDS011;5763;42.714;23.244;2023-07-13T07:44:54;10.07;;;8.38;;
11414;SDS011;5763;42.714;23.244;2023-07-13T07:47:21;9.98;;;8.20;;
11414;SDS011;5763;42.714;23.244;2023-07-13T07:49:49;11.50;;;8.43;;
11414;SDS011;5763;42.714;23.244;2023-07-13T07:52:16;10.93;;;7.90;;
11414;SDS011;5763;42.714;23.244;2023-07-13T07:54:44;11.75;;;10.63;;
11414;SDS011;5763;42.714;23.244;2023-07-13T07:57:10;13.63;;;8.50;;
11414;SDS011;5763;42.714;23.244;2023-07-13T07:59:37;11.07;;;7.93;;
11414;SDS011;5763;42.714;23.244;2023-07-13T08:02:04;8.93;;;8.00;;
11414;SDS011;5763;42.714;23.244;2023-07-13T08:04:32;12.07;;;8.60;;
11414;SDS011;5763;42.714;23.244;2023-07-13T08:06:59;10.48;;;8.73;;
11414;SDS011;5763;42.714;23.244;2023-07-13T08:09:27;10.40;;;9.23;;
11414;SDS011;5763;42.714;23.244;2023-07-13T08:11:55;10.38;;;9.20;;
11414;SDS011;5763;42.714;23.244;2023-07-13T08:14:22;9.88;;;8.02;;
11414;SDS011;5763;42.714;23.244;2023-07-13T08:16:49;12.80;;;9.60;;
11414;SDS011;5763;42.714;23.244;2023-07-13T08:19:16;12.35;;;9.00;;
11414;SDS011;5763;42.714;23.244;2023-07-13T08:21:43;16.20;;;11.05;;
11414;SDS011;5763;42.714;23.244;2023-07-13T08:24:10;13.00;;;10.02;;
11414;SDS011;5763;42.714;23.244;2023-07-13T08:26:37;10.80;;;9.70;;
11414;SDS011;5763;42.714;23.244;2023-07-13T08:29:05;12.73;;;11.00;;
11414;SDS011;5763;42.714;23.244;2023-07-13T08:31:32;12.00;;;9.93;;
11414;SDS011;5763;42.714;23.244;2023-07-13T08:33:58;9.60;;;8.48;;
11414;SDS011;5763;42.714;23.244;2023-07-13T08:36:25;16.67;;;9.30;;
11414;SDS011;5763;42.714;23.244;2023-07-13T08:38:52;12.93;;;9.00;;
11414;SDS011;5763;42.714;23.244;2023-07-13T08:41:20;11.85;;;10.65;;
11414;SDS011;5763;42.714;23.244;2023-07-13T08:43:48;13.05;;;9.10;;
11414;SDS011;5763;42.714;23.244;2023-07-13T08:46:19;10.32;;;8.18;;
11414;SDS011;5763;42.714;23.244;2023-07-13T08:48:51;11.35;;;8.43;;
11414;SDS011;5763;42.714;23.244;2023-07-13T08:51:23;11.73;;;8.77;;
11414;SDS011;5763;42.714;23.244;2023-07-13T08:53:58;12.60;;;8.60;;
11414;SDS011;5763;42.714;23.244;2023-07-13T08:56:27;11.32;;;8.82;;
11414;SDS011;5763;42.714;23.244;2023-07-13T08:58:56;10.68;;;9.57;;
11414;SDS011;5763;42.714;23.244;2023-07-13T09:01:36;14.73;;;9.85;;
11414;SDS011;5763;42.714;23.244;2023-07-13T09:04:16;14.35;;;10.30;;
11414;SDS011;5763;42.714;23.244;2023-07-13T09:06:50;13.05;;;10.48;;
11414;SDS011;5763;42.714;23.244;2023-07-13T09:09:27;12.60;;;9.00;;
11414;SDS011;5763;42.714;23.244;2023-07-13T09:12:05;16.88;;;10.10;;
11414;SDS011;5763;42.714;23.244;2023-07-13T09:14:42;15.65;;;10.02;;
11414;SDS011;5763;42.714;23.244;2023-07-13T09:17:16;13.25;;;8.95;;
11414;SDS011;5763;42.714;23.244;2023-07-13T09:19:46;10.15;;;9.07;;
11414;SDS011;5763;42.714;23.244;2023-07-13T09:22:19;13.70;;;8.50;;
11414;SDS011;5763;42.714;23.244;2023-07-13T09:24:50;13.15;;;6.60;;
11414;SDS011;5763;42.714;23.244;2023-07-13T09:27:22;6.93;;;5.20;;
11414;SDS011;5763;42.714;23.244;2023-07-13T09:29:55;9.30;;;5.03;;
11414;SDS011;5763;42.714;23.244;2023-07-13T09:32:29;8.27;;;5.28;;
11414;SDS011;5763;42.714;23.244;2023-07-13T09:34:57;7.15;;;4.68;;
11414;SDS011;5763;42.714;23.244;2023-07-13T09:37:28;6.78;;;4.70;;
11414;SDS011;5763;42.714;23.244;2023-07-13T09:39:57;11.90;;;5.90;;
11414;SDS011;5763;42.714;23.244;2023-07-13T09:42:25;8.90;;;5.10;;
11414;SDS011;5763;42.714;23.244;2023-07-13T09:44:54;7.18;;;4.72;;
11414;SDS011;5763;42.714;23.244;2023-07-13T09:47:23;7.07;;;4.82;;
11414;SDS011;5763;42.714;23.244;2023-07-13T09:49:56;9.30;;;5.10;;
11414;SDS011;5763;42.714;23.244;2023-07-13T09:52:25;6.40;;;4.55;;
11414;SDS011;5763;42.714;23.244;2023-07-13T09:54:53;8.35;;;5.20;;
11414;SDS011;5763;42.714;23.244;2023-07-13T09:57:25;7.10;;;4.60;;
11414;SDS011;5763;42.714;23.244;2023-07-13T09:59:53;7.00;;;4.25;;
11414;SDS011;5763;42.714;23.244;2023-07-13T10:02:24;6.47;;;5.25;;
11414;SDS011;5763;42.714;23.244;2023-07-13T10:04:58;8.23;;;4.57;;
11414;SDS011;5763;42.714;23.244;2023-07-13T10:07:26;9.43;;;4.85;;
11414;SDS011;5763;42.714;23.244;2023-07-13T10:09:54;6.88;;;4.38;;
11414;SDS011;5763;42.714;23.244;2023-07-13T10:12:21;7.75;;;4.68;;
11414;SDS011;5763;42.714;23.244;2023-07-13T10:14:50;7.75;;;5.03;;
11414;SDS011;5763;42.714;23.244;2023-07-13T10:17:21;8.75;;;4.70;;
11414;SDS011;5763;42.714;23.244;2023-07-13T10:19:55;6.03;;;5.38;;
11414;SDS011;5763;42.714;23.244;2023-07-13T10:22:27;6.25;;;5.03;;
11414;SDS011;5763;42.714;23.244;2023-07-13T10:25:02;7.75;;;4.80;;
11414;SDS011;5763;42.714;23.244;2023-07-13T10:27:35;7.00;;;4.70;;
11414;SDS011;5763;42.714;23.244;2023-07-13T10:30:06;5.50;;;4.95;;
11414;SDS011;5763;42.714;23.244;2023-07-13T10:32:38;5.43;;;4.00;;
11414;SDS011;5763;42.714;23.244;2023-07-13T10:35:09;6.75;;;5.28;;
11414;SDS011;5763;42.714;23.244;2023-07-13T10:37:41;7.90;;;5.00;;
11414;SDS011;5763;42.714;23.244;2023-07-13T10:40:12;6.47;;;4.50;;
11414;SDS011;5763;42.714;23.244;2023-07-13T10:42:41;7.93;;;4.57;;
11414;SDS011;5763;42.714;23.244;2023-07-13T10:45:13;5.22;;;4.13;;
11414;SDS011;5763;42.714;23.244;2023-07-13T10:47:41;5.35;;;3.78;;
11414;SDS011;5763;42.714;23.244;2023-07-13T10:50:11;6.00;;;4.32;;
11414;SDS011;5763;42.714;23.244;2023-07-13T10:52:44;6.20;;;4.85;;
11414;SDS011;5763;42.714;23.244;2023-07-13T10:57:59;6.30;;;4.60;;
11414;SDS011;5763;42.714;23.244;2023-07-13T11:00:30;8.20;;;4.78;;
11414;SDS011;5763;42.714;23.244;2023-07-13T11:02:59;9.15;;;4.43;;
11414;SDS011;5763;42.714;23.244;2023-07-13T11:05:30;8.00;;;4.50;;
11414;SDS011;5763;42.714;23.244;2023-07-13T11:08:03;7.50;;;4.95;;
11414;SDS011;5763;42.714;23.244;2023-07-13T11:10:47;8.10;;;4.93;;
11414;SDS011;5763;42.714;23.244;2023-07-13T11:16:12;7.05;;;4.90;;
11414;SDS011;5763;42.714;23.244;2023-07-13T11:18:39;10.02;;;5.30;;
11414;SDS011;5763;42.714;23.244;2023-07-13T11:21:17;10.20;;;5.30;;
11414;SDS011;5763;42.714;23.244;2023-07-13T11:23:51;7.60;;;5.00;;
11414;SDS011;5763;42.714;23.244;2023-07-13T11:26:38;7.85;;;5.00;;
11414;SDS011;5763;42.714;23.244;2023-07-13T11:29:14;6.43;;;4.95;;
11414;SDS011;5763;42.714;23.244;2023-07-13T11:31:52;6.75;;;4.50;;
11414;SDS011;5763;42.714;23.244;2023-07-13T11:34:23;5.60;;;4.88;;
11414;SDS011;5763;42.714;23.244;2023-07-13T11:36:56;5.75;;;4.20;;
11414;SDS011;5763;42.714;23.244;2023-07-13T11:39:27;10.30;;;5.00;;
11414;SDS011;5763;42.714;23.244;2023-07-13T11:41:58;8.52;;;4.80;;
11414;SDS011;5763;42.714;23.244;2023-07-13T11:44:27;8.55;;;5.57;;
11414;SDS011;5763;42.714;23.244;2023-07-13T11:46:56;5.70;;;4.72;;
11414;SDS011;5763;42.714;23.244;2023-07-13T11:49:26;6.65;;;4.53;;
11414;SDS011;5763;42.714;23.244;2023-07-13T11:51:58;6.65;;;4.53;;
11414;SDS011;5763;42.714;23.244;2023-07-13T11:54:28;6.68;;;4.50;;
11414;SDS011;5763;42.714;23.244;2023-07-13T11:56:57;6.82;;;5.15;;
11414;SDS011;5763;42.714;23.244;2023-07-13T11:59:26;6.85;;;5.43;;
11414;SDS011;5763;42.714;23.244;2023-07-13T12:01:55;9.13;;;5.22;;
11414;SDS011;5763;42.714;23.244;2023-07-13T12:04:24;9.38;;;6.00;;
11414;SDS011;5763;42.714;23.244;2023-07-13T12:06:54;10.68;;;6.13;;
11414;SDS011;5763;42.714;23.244;2023-07-13T12:09:25;8.00;;;5.03;;
11414;SDS011;5763;42.714;23.244;2023-07-13T12:11:54;7.75;;;4.95;;
11414;SDS011;5763;42.714;23.244;2023-07-13T12:14:23;9.40;;;5.25;;
11414;SDS011;5763;42.714;23.244;2023-07-13T12:16:51;8.45;;;5.75;;
11414;SDS011;5763;42.714;23.244;2023-07-13T12:19:21;10.15;;;5.28;;
11414;SDS011;5763;42.714;23.244;2023-07-13T12:21:49;8.75;;;4.60;;
11414;SDS011;5763;42.714;23.244;2023-07-13T12:24:20;5.78;;;4.95;;
11414;SDS011;5763;42.714;23.244;2023-07-13T12:26:53;11.18;;;5.30;;
11414;SDS011;5763;42.714;23.244;2023-07-13T12:29:24;6.53;;;4.97;;
11414;SDS011;5763;42.714;23.244;2023-07-13T12:31:51;6.60;;;5.70;;
11414;SDS011;5763;42.714;23.244;2023-07-13T12:34:19;6.25;;;4.70;;
11414;SDS011;5763;42.714;23.244;2023-07-13T12:36:47;9.90;;;4.95;;
11414;SDS011;5763;42.714;23.244;2023-07-13T12:39:18;10.00;;;5.25;;
11414;SDS011;5763;42.714;23.244;2023-07-13T12:41:46;8.77;;;5.20;;
11414;SDS011;5763;42.714;23.244;2023-07-13T12:44:16;7.25;;;5.15;;
11414;SDS011;5763;42.714;23.244;2023-07-13T12:46:58;7.03;;;5.32;;
11414;SDS011;5763;42.714;23.244;2023-07-13T12:49:30;6.78;;;4.75;;
11414;SDS011;5763;42.714;23.244;2023-07-13T12:52:00;7.95;;;4.63;;
11414;SDS011;5763;42.714;23.244;2023-07-13T12:54:29;7.20;;;4.70;;
11414;SDS011;5763;42.714;23.244;2023-07-13T12:56:58;6.90;;;4.88;;
11414;SDS011;5763;42.714;23.244;2023-07-13T12:59:30;6.65;;;4.85;;
11414;SDS011;5763;42.714;23.244;2023-07-13T13:02:01;6.45;;;4.65;;
11414;SDS011;5763;42.714;23.244;2023-07-13T13:04:29;8.18;;;5.47;;
11414;SDS011;5763;42.714;23.244;2023-07-13T13:07:03;10.57;;;5.43;;
11414;SDS011;5763;42.714;23.244;2023-07-13T13:09:31;8.38;;;5.22;;
11414;SDS011;5763;42.714;23.244;2023-07-13T13:11:58;6.28;;;5.15;;
11414;SDS011;5763;42.714;23.244;2023-07-13T13:14:25;6.20;;;5.45;;
11414;SDS011;5763;42.714;23.244;2023-07-13T13:16:54;7.28;;;5.03;;
11414;SDS011;5763;42.714;23.244;2023-07-13T13:19:23;8.13;;;4.93;;
11414;SDS011;5763;42.714;23.244;2023-07-13T13:21:53;10.32;;;4.78;;
11414;SDS011;5763;42.714;23.244;2023-07-13T13:24:22;7.07;;;4.88;;
11414;SDS011;5763;42.714;23.244;2023-07-13T13:26:50;8.55;;;5.22;;
11414;SDS011;5763;42.714;23.244;2023-07-13T13:29:19;7.82;;;5.18;;
11414;SDS011;5763;42.714;23.244;2023-07-13T13:31:49;8.27;;;5.20;;
11414;SDS011;5763;42.714;23.244;2023-07-13T13:34:19;7.15;;;5.22;;
11414;SDS011;5763;42.714;23.244;2023-07-13T13:36:48;21.63;;;6.10;;
11414;SDS011;5763;42.714;23.244;2023-07-13T13:39:20;7.78;;;4.72;;
11414;SDS011;5763;42.714;23.244;2023-07-13T13:41:49;9.27;;;4.63;;
11414;SDS011;5763;42.714;23.244;2023-07-13T13:44:18;12.02;;;4.75;;
11414;SDS011;5763;42.714;23.244;2023-07-13T13:46:47;8.75;;;4.55;;
11414;SDS011;5763;42.714;23.244;2023-07-13T13:49:16;9.65;;;4.45;;
11414;SDS011;5763;42.714;23.244;2023-07-13T13:51:47;10.05;;;4.70;;
11414;SDS011;5763;42.714;23.244;2023-07-13T13:54:14;9.43;;;4.63;;
11414;SDS011;5763;42.714;23.244;2023-07-13T13:56:42;6.40;;;4.40;;
11414;SDS011;5763;42.714;23.244;2023-07-13T13:59:10;7.22;;;4.50;;
11414;SDS011;5763;42.714;23.244;2023-07-13T14:01:37;8.73;;;4.53;;
11414;SDS011;5763;42.714;23.244;2023-07-13T14:04:04;7.68;;;4.82;;
11414;SDS011;5763;42.714;23.244;2023-07-13T14:06:34;9.25;;;4.75;;
11414;SDS011;5763;42.714;23.244;2023-07-13T14:09:01;6.78;;;4.75;;
11414;SDS011;5763;42.714;23.244;2023-07-13T14:11:29;6.65;;;4.72;;
11414;SDS011;5763;42.714;23.244;2023-07-13T14:13:58;10.88;;;5.22;;
11414;SDS011;5763;42.714;23.244;2023-07-13T14:16:28;11.65;;;5.68;;
11414;SDS011;5763;42.714;23.244;2023-07-13T14:18:56;6.93;;;4.80;;
11414;SDS011;5763;42.714;23.244;2023-07-13T14:21:26;8.13;;;5.10;;
11414;SDS011;5763;42.714;23.244;2023-07-13T14:23:55;6.80;;;4.65;;
11414;SDS011;5763;42.714;23.244;2023-07-13T14:26:23;8.90;;;4.70;;
11414;SDS011;5763;42.714;23.244;2023-07-13T14:28:52;7.38;;;4.78;;
11414;SDS011;5763;42.714;23.244;2023-07-13T14:31:21;8.18;;;4.70;;
11414;SDS011;5763;42.714;23.244;2023-07-13T14:33:49;8.18;;;5.00;;
11414;SDS011;5763;42.714;23.244;2023-07-13T14:36:25;10.32;;;4.90;;
11414;SDS011;5763;42.714;23.244;2023-07-13T14:38:55;7.78;;;5.20;;
11414;SDS011;5763;42.714;23.244;2023-07-13T14:41:23;9.35;;;4.95;;
11414;SDS011;5763;42.714;23.244;2023-07-13T14:43:49;7.30;;;4.60;;
11414;SDS011;5763;42.714;23.244;2023-07-13T14:46:20;7.35;;;4.65;;
11414;SDS011;5763;42.714;23.244;2023-07-13T14:48:55;5.93;;;4.75;;
11414;SDS011;5763;42.714;23.244;2023-07-13T14:51:27;6.53;;;4.75;;
11414;SDS011;5763;42.714;23.244;2023-07-13T14:53:55;10.15;;;5.00;;
11414;SDS011;5763;42.714;23.244;2023-07-13T14:56:22;6.50;;;4.75;;
11414;SDS011;5763;42.714;23.244;2023-07-13T14:58:49;7.93;;;5.40;;